Time;durP1;ratioP1;P1;durP2;ratioP2;P2;SDS_P1;SDS_P2;PMS_P1;PMS_P2;Temp;Humidity;BMP_temperature;BMP_pressure;BME280_temperature;BME280_humidity;BME280_pressure;Samples;Min_cycle;Max_cycle;Signal;HPM_P1;HPM_P2
2023/08/04 00:01:47;;;;;;;17.02;4.63;;;;;;;;;;4997118;28;25110;-73
2023/08/04 00:04:13;;;;;;;12.13;4.03;;;;;;;;;;4991349;28;25068;-73
2023/08/04 00:06:39;;;;;;;14.65;4.25;;;;;;;;;;4993456;28;25067;-72
2023/08/04 00:09:05;;;;;;;17.02;4.13;;;;;;;;;;4990315;28;25165;-71
2023/08/04 00:11:31;;;;;;;11.00;3.85;;;;;;;;;;4993070;28;25063;-74
2023/08/04 00:13:57;;;;;;;11.82;4.50;;;;;;;;;;4999279;28;25098;-72
2023/08/04 00:16:23;;;;;;;14.18;4.80;;;;;;;;;;4989453;28;25054;-73
2023/08/04 00:18:49;;;;;;;11.15;3.78;;;;;;;;;;5020912;28;25062;-73
2023/08/04 00:21:15;;;;;;;18.55;3.95;;;;;;;;;;4990345;28;25156;-73
2023/08/04 00:23:41;;;;;;;13.02;3.85;;;;;;;;;;5006266;28;25084;-72
2023/08/04 00:26:07;;;;;;;7.75;3.15;;;;;;;;;;5007884;28;25067;-72
2023/08/04 00:28:33;;;;;;;14.55;3.50;;;;;;;;;;5000404;28;25060;-71
2023/08/04 00:30:58;;;;;;;10.98;3.80;;;;;;;;;;4988805;28;25074;-74
2023/08/04 00:33:24;;;;;;;10.20;3.90;;;;;;;;;;5003918;28;25074;-72
2023/08/04 00:35:51;;;;;;;16.30;4.65;;;;;;;;;;4993977;28;25102;-71
2023/08/04 00:38:17;;;;;;;15.73;3.97;;;;;;;;;;5004357;28;25058;-72
2023/08/04 00:40:42;;;;;;;11.32;3.88;;;;;;;;;;4999413;28;25049;-72
2023/08/04 00:43:09;;;;;;;9.48;3.53;;;;;;;;;;4992963;28;25165;-71
2023/08/04 00:45:35;;;;;;;9.75;3.67;;;;;;;;;;5006540;28;25087;-72
2023/08/04 00:48:01;;;;;;;14.10;4.43;;;;;;;;;;5000237;28;25058;-72
2023/08/04 00:50:28;;;;;;;16.33;3.78;;;;;;;;;;4988661;28;25059;-71
2023/08/04 00:52:54;;;;;;;14.38;3.92;;;;;;;;;;4996979;28;25127;-72
2023/08/04 00:55:20;;;;;;;14.02;3.83;;;;;;;;;;4999611;28;25069;-73
2023/08/04 00:57:47;;;;;;;11.18;3.47;;;;;;;;;;5002025;28;25140;-72
2023/08/04 01:00:14;;;;;;;12.07;3.83;;;;;;;;;;5001218;28;25046;-73
2023/08/04 01:02:39;;;;;;;12.20;3.60;;;;;;;;;;4993121;28;25079;-72
2023/08/04 01:05:06;;;;;;;10.73;3.22;;;;;;;;;;4987917;28;25080;-72
2023/08/04 01:07:36;;;;;;;17.80;4.13;;;;;;;;;;4990148;28;25160;-72
2023/08/04 01:10:12;;;;;;;13.82;3.80;;;;;;;;;;4991305;28;25067;-73
2023/08/04 01:12:47;;;;;;;9.15;3.90;;;;;;;;;;5003717;28;25073;-70
2023/08/04 01:15:14;;;;;;;11.05;3.55;;;;;;;;;;5001288;28;25074;-73
2023/08/04 01:17:40;;;;;;;9.13;4.05;;;;;;;;;;4989214;28;25104;-72
2023/08/04 01:20:07;;;;;;;11.00;3.38;;;;;;;;;;4994792;28;25107;-72
2023/08/04 01:22:36;;;;;;;12.00;3.30;;;;;;;;;;4999686;28;25109;-73
2023/08/04 01:25:03;;;;;;;10.60;3.17;;;;;;;;;;4993787;28;25074;-73
2023/08/04 01:27:38;;;;;;;9.20;3.58;;;;;;;;;;4988612;28;25072;-72
2023/08/04 01:30:06;;;;;;;8.45;4.18;;;;;;;;;;5001702;28;25094;-72
2023/08/04 01:32:33;;;;;;;7.13;3.72;;;;;;;;;;4998466;28;25146;-72
2023/08/04 01:34:59;;;;;;;8.88;3.83;;;;;;;;;;5003777;28;25069;-72
2023/08/04 01:37:25;;;;;;;10.73;3.58;;;;;;;;;;5003435;28;25064;-73
2023/08/04 01:39:51;;;;;;;10.88;3.65;;;;;;;;;;4995924;28;25053;-73
2023/08/04 01:42:17;;;;;;;12.23;3.40;;;;;;;;;;4993542;28;25108;-72
2023/08/04 01:44:43;;;;;;;9.73;3.58;;;;;;;;;;4996087;28;25145;-73
2023/08/04 01:47:09;;;;;;;13.70;3.97;;;;;;;;;;5006320;28;25044;-73
2023/08/04 01:49:35;;;;;;;15.00;3.83;;;;;;;;;;5003008;28;25052;-73
2023/08/04 01:52:02;;;;;;;10.95;3.70;;;;;;;;;;4999603;28;25077;-73
2023/08/04 01:54:28;;;;;;;10.63;3.20;;;;;;;;;;5009727;28;25057;-72
2023/08/04 01:56:54;;;;;;;7.10;3.03;;;;;;;;;;5006617;28;25051;-73
2023/08/04 01:59:20;;;;;;;8.40;3.78;;;;;;;;;;5005871;28;25098;-72
2023/08/04 02:01:46;;;;;;;8.13;3.38;;;;;;;;;;5003231;28;25071;-72
2023/08/04 02:04:12;;;;;;;8.57;3.75;;;;;;;;;;5000888;28;25065;-73
2023/08/04 02:06:38;;;;;;;11.30;3.85;;;;;;;;;;4996710;28;25059;-73
2023/08/04 02:09:04;;;;;;;8.63;3.28;;;;;;;;;;4999091;28;25122;-72
2023/08/04 02:11:33;;;;;;;15.48;3.60;;;;;;;;;;5001269;28;25078;-73
2023/08/04 02:14:00;;;;;;;13.60;4.05;;;;;;;;;;4991687;28;25144;-73
2023/08/04 02:16:26;;;;;;;9.93;3.90;;;;;;;;;;4997429;28;25156;-72
2023/08/04 02:18:52;;;;;;;10.02;3.22;;;;;;;;;;4995449;28;25062;-72
2023/08/04 02:21:18;;;;;;;10.07;3.88;;;;;;;;;;5008429;28;25063;-72
2023/08/04 02:23:44;;;;;;;10.90;3.55;;;;;;;;;;5003606;28;25071;-72
2023/08/04 02:26:10;;;;;;;9.77;3.58;;;;;;;;;;4990747;28;25060;-73
2023/08/04 02:28:36;;;;;;;13.45;4.15;;;;;;;;;;5003548;28;25087;-73
2023/08/04 02:31:02;;;;;;;11.18;4.30;;;;;;;;;;4998965;28;25110;-73
2023/08/04 02:33:28;;;;;;;10.02;4.13;;;;;;;;;;4995639;28;25140;-73
2023/08/04 02:36:01;;;;;;;11.27;3.63;;;;;;;;;;5003125;28;25077;-72
2023/08/04 02:38:27;;;;;;;8.68;2.90;;;;;;;;;;5006650;28;25180;-73
2023/08/04 02:40:53;;;;;;;9.55;3.67;;;;;;;;;;5003218;28;25047;-73
2023/08/04 02:43:19;;;;;;;13.13;3.75;;;;;;;;;;4993713;28;25079;-73
2023/08/04 02:45:51;;;;;;;10.75;3.80;;;;;;;;;;5002713;28;25123;-74
2023/08/04 02:48:17;;;;;;;10.57;4.40;;;;;;;;;;4998961;28;25053;-73
2023/08/04 02:50:43;;;;;;;10.63;4.03;;;;;;;;;;4996597;28;25076;-73
2023/08/04 02:53:09;;;;;;;9.45;3.50;;;;;;;;;;4990271;28;25123;-73
2023/08/04 02:55:35;;;;;;;11.18;4.30;;;;;;;;;;5003014;28;25080;-73
2023/08/04 02:58:01;;;;;;;14.95;4.35;;;;;;;;;;4995831;28;25062;-72
2023/08/04 03:00:27;;;;;;;14.98;3.97;;;;;;;;;;4990553;28;25093;-72
2023/08/04 03:02:53;;;;;;;11.25;4.25;;;;;;;;;;4982779;28;25060;-73
2023/08/04 03:05:19;;;;;;;7.65;3.65;;;;;;;;;;4998403;28;25057;-73
2023/08/04 03:07:48;;;;;;;12.73;4.93;;;;;;;;;;4991766;28;25133;-73
2023/08/04 03:10:14;;;;;;;16.42;4.65;;;;;;;;;;4994300;28;25110;-73
2023/08/04 03:12:40;;;;;;;9.35;3.92;;;;;;;;;;4989855;28;25142;-73
2023/08/04 03:15:06;;;;;;;13.65;4.00;;;;;;;;;;4991694;28;25170;-73
2023/08/04 03:17:32;;;;;;;8.10;3.60;;;;;;;;;;4992572;28;25050;-71
2023/08/04 03:19:58;;;;;;;7.68;3.70;;;;;;;;;;4996489;28;25097;-73
2023/08/04 03:22:24;;;;;;;7.35;3.78;;;;;;;;;;4973291;28;25074;-73
2023/08/04 03:24:50;;;;;;;11.88;4.45;;;;;;;;;;4995130;28;25140;-72
2023/08/04 03:27:16;;;;;;;13.25;4.03;;;;;;;;;;4998297;28;25073;-71
2023/08/04 03:29:42;;;;;;;10.75;3.80;;;;;;;;;;5000705;28;25048;-72
2023/08/04 03:32:08;;;;;;;14.07;4.38;;;;;;;;;;4997959;28;25057;-73
2023/08/04 03:34:34;;;;;;;10.98;4.07;;;;;;;;;;5000432;28;25156;-72
2023/08/04 03:37:00;;;;;;;6.95;4.38;;;;;;;;;;5004802;28;25141;-71
2023/08/04 03:39:28;;;;;;;10.75;4.13;;;;;;;;;;4992557;28;25079;-73
2023/08/04 03:41:54;;;;;;;12.65;4.00;;;;;;;;;;4994703;28;25044;-72
2023/08/04 03:44:20;;;;;;;8.63;3.80;;;;;;;;;;4993561;28;25137;-72
2023/08/04 03:46:46;;;;;;;16.77;4.00;;;;;;;;;;4988561;28;25056;-72
2023/08/04 03:49:12;;;;;;;8.45;3.53;;;;;;;;;;5005268;28;25081;-73
2023/08/04 03:51:38;;;;;;;11.73;3.75;;;;;;;;;;5009196;28;25067;-73
2023/08/04 03:54:05;;;;;;;8.45;3.47;;;;;;;;;;5020915;28;25069;-72
2023/08/04 03:56:31;;;;;;;10.93;4.05;;;;;;;;;;4995681;28;25056;-72
2023/08/04 03:58:57;;;;;;;13.70;4.10;;;;;;;;;;5005942;28;25072;-72
2023/08/04 04:01:23;;;;;;;11.48;4.00;;;;;;;;;;5002528;28;25057;-73
2023/08/04 04:03:49;;;;;;;11.93;4.03;;;;;;;;;;5000509;28;25122;-72
2023/08/04 04:06:16;;;;;;;14.07;4.28;;;;;;;;;;4998152;28;26205;-72
2023/08/04 04:08:42;;;;;;;9.85;3.28;;;;;;;;;;5007350;28;25053;-72
2023/08/04 04:11:08;;;;;;;8.48;3.70;;;;;;;;;;4997378;28;25058;-72
2023/08/04 04:13:35;;;;;;;7.53;3.58;;;;;;;;;;5008789;28;25181;-72
2023/08/04 04:16:01;;;;;;;14.30;4.93;;;;;;;;;;5004079;28;25062;-73
2023/08/04 04:18:27;;;;;;;8.85;4.75;;;;;;;;;;4992975;28;25067;-74
2023/08/04 04:20:53;;;;;;;11.57;4.43;;;;;;;;;;4991269;28;25078;-73
2023/08/04 04:23:19;;;;;;;7.22;3.67;;;;;;;;;;4995577;28;25093;-73
2023/08/04 04:25:44;;;;;;;15.23;4.05;;;;;;;;;;4995314;28;25073;-73
2023/08/04 04:28:10;;;;;;;11.43;4.25;;;;;;;;;;5003210;28;25177;-73
2023/08/04 04:30:36;;;;;;;9.95;4.10;;;;;;;;;;4994650;28;25051;-73
2023/08/04 04:33:02;;;;;;;9.43;3.70;;;;;;;;;;4999273;28;25063;-73
2023/08/04 04:35:28;;;;;;;9.63;4.45;;;;;;;;;;4994965;28;25070;-72
2023/08/04 04:37:54;;;;;;;12.30;3.97;;;;;;;;;;4984402;28;25052;-73
2023/08/04 04:40:20;;;;;;;9.25;3.90;;;;;;;;;;4998803;28;25086;-73
2023/08/04 04:42:46;;;;;;;10.38;4.13;;;;;;;;;;4997736;28;25122;-73
2023/08/04 04:45:12;;;;;;;6.38;3.90;;;;;;;;;;5001060;28;25059;-74
2023/08/04 04:47:38;;;;;;;8.82;3.50;;;;;;;;;;5000061;28;25077;-75
2023/08/04 04:50:05;;;;;;;6.15;3.47;;;;;;;;;;4998851;28;25077;-73
2023/08/04 04:52:38;;;;;;;13.70;4.68;;;;;;;;;;4996579;28;25049;-72
2023/08/04 04:55:04;;;;;;;6.93;3.85;;;;;;;;;;4995022;28;25096;-73
2023/08/04 04:57:31;;;;;;;10.88;3.85;;;;;;;;;;4990092;28;25084;-73
2023/08/04 04:59:57;;;;;;;9.32;3.85;;;;;;;;;;4999991;28;25065;-74
2023/08/04 05:02:23;;;;;;;10.13;4.15;;;;;;;;;;5002194;28;25119;-75
2023/08/04 05:04:49;;;;;;;9.60;4.40;;;;;;;;;;4995756;28;25111;-73
2023/08/04 05:07:15;;;;;;;10.45;4.18;;;;;;;;;;4987109;28;25110;-74
2023/08/04 05:09:41;;;;;;;8.45;3.53;;;;;;;;;;4993567;28;25128;-73
2023/08/04 05:12:07;;;;;;;9.20;4.15;;;;;;;;;;4993077;28;25054;-73
2023/08/04 05:14:34;;;;;;;8.68;3.85;;;;;;;;;;5008073;28;25065;-72
2023/08/04 05:17:00;;;;;;;11.00;3.83;;;;;;;;;;4996083;28;25067;-74
2023/08/04 05:19:26;;;;;;;11.00;4.82;;;;;;;;;;5003682;28;25058;-73
2023/08/04 05:21:52;;;;;;;7.50;3.47;;;;;;;;;;5004003;28;25086;-73
2023/08/04 05:24:18;;;;;;;8.18;3.72;;;;;;;;;;5009335;28;25068;-73
2023/08/04 05:26:44;;;;;;;5.78;3.30;;;;;;;;;;4990400;28;25077;-75
2023/08/04 05:29:10;;;;;;;9.55;3.83;;;;;;;;;;5004072;28;25059;-75
2023/08/04 05:31:36;;;;;;;12.82;3.50;;;;;;;;;;5005129;28;25136;-74
2023/08/04 05:34:02;;;;;;;10.18;3.35;;;;;;;;;;4997274;28;25158;-73
2023/08/04 05:36:28;;;;;;;8.02;3.22;;;;;;;;;;4999547;28;25074;-70
2023/08/04 05:38:54;;;;;;;8.65;3.25;;;;;;;;;;4995406;28;25068;-72
2023/08/04 05:41:20;;;;;;;8.70;3.88;;;;;;;;;;4995362;28;25062;-71
2023/08/04 05:43:46;;;;;;;12.07;5.43;;;;;;;;;;4998315;28;25056;-71
2023/08/04 05:46:12;;;;;;;7.65;4.00;;;;;;;;;;4998727;28;25073;-71
2023/08/04 05:48:39;;;;;;;11.30;5.03;;;;;;;;;;4998839;28;25067;-72
2023/08/04 05:51:05;;;;;;;11.02;4.22;;;;;;;;;;4991764;28;25172;-71
2023/08/04 05:53:32;;;;;;;10.43;4.15;;;;;;;;;;5000257;28;25080;-70
2023/08/04 05:55:58;;;;;;;10.30;3.80;;;;;;;;;;4995375;28;25068;-71
2023/08/04 05:58:24;;;;;;;8.95;4.18;;;;;;;;;;4995763;28;25059;-71
2023/08/04 06:00:50;;;;;;;4.82;3.42;;;;;;;;;;4986796;28;25066;-71
2023/08/04 06:03:16;;;;;;;10.32;4.30;;;;;;;;;;4994436;28;25059;-70
2023/08/04 06:05:43;;;;;;;6.38;4.10;;;;;;;;;;4997049;28;25070;-70
2023/08/04 06:08:09;;;;;;;13.00;4.72;;;;;;;;;;4990108;28;25063;-72
2023/08/04 06:10:35;;;;;;;5.60;4.40;;;;;;;;;;5010713;28;25065;-71
2023/08/04 06:13:02;;;;;;;7.90;4.07;;;;;;;;;;5004353;28;25067;-70
2023/08/04 06:15:28;;;;;;;7.50;3.70;;;;;;;;;;5001760;28;25062;-70
2023/08/04 06:17:54;;;;;;;6.15;4.22;;;;;;;;;;4995859;28;25114;-70
2023/08/04 06:20:20;;;;;;;7.32;4.40;;;;;;;;;;5017379;28;25076;-71
2023/08/04 06:22:49;;;;;;;7.53;3.50;;;;;;;;;;4993074;28;25167;-71
2023/08/04 06:25:15;;;;;;;7.57;3.25;;;;;;;;;;4997799;28;25078;-71
2023/08/04 06:27:41;;;;;;;5.28;3.67;;;;;;;;;;4986640;28;25053;-71
2023/08/04 06:30:08;;;;;;;7.45;4.22;;;;;;;;;;4990313;28;25058;-69
2023/08/04 06:32:34;;;;;;;6.32;3.85;;;;;;;;;;4989399;28;25120;-70
2023/08/04 06:35:00;;;;;;;8.70;3.85;;;;;;;;;;5007885;28;25134;-73
2023/08/04 06:37:26;;;;;;;8.27;3.83;;;;;;;;;;4996270;28;25075;-70
2023/08/04 06:39:52;;;;;;;5.20;2.53;;;;;;;;;;4993370;28;25088;-73
2023/08/04 06:42:18;;;;;;;6.47;3.00;;;;;;;;;;4988215;28;25141;-71
2023/08/04 06:44:44;;;;;;;5.35;2.83;;;;;;;;;;4986741;28;25078;-71
2023/08/04 06:47:11;;;;;;;7.28;3.20;;;;;;;;;;4979881;28;25076;-72
2023/08/04 06:49:37;;;;;;;5.88;3.45;;;;;;;;;;4982372;28;25059;-71
2023/08/04 06:52:03;;;;;;;7.85;3.30;;;;;;;;;;4983990;28;25144;-72
2023/08/04 06:54:29;;;;;;;8.40;2.75;;;;;;;;;;4988868;28;25071;-72
2023/08/04 06:56:55;;;;;;;6.80;2.85;;;;;;;;;;4994037;28;25111;-70
2023/08/04 06:59:21;;;;;;;7.18;2.70;;;;;;;;;;4990937;28;25052;-71
2023/08/04 07:01:48;;;;;;;4.38;2.92;;;;;;;;;;4994817;28;25060;-71
2023/08/04 07:04:14;;;;;;;5.22;2.75;;;;;;;;;;4991111;28;25074;-70
2023/08/04 07:06:40;;;;;;;7.32;2.67;;;;;;;;;;4986165;28;25157;-71
2023/08/04 07:09:06;;;;;;;5.78;2.33;;;;;;;;;;4982297;28;25085;-71
2023/08/04 07:11:31;;;;;;;7.18;3.10;;;;;;;;;;4978128;28;25076;-72
2023/08/04 07:13:57;;;;;;;4.75;2.60;;;;;;;;;;4984546;28;25149;-69
2023/08/04 07:16:24;;;;;;;5.25;2.97;;;;;;;;;;4993825;28;25108;-71
2023/08/04 07:18:50;;;;;;;6.95;2.65;;;;;;;;;;5003315;28;25066;-70
2023/08/04 07:21:16;;;;;;;8.20;2.60;;;;;;;;;;4989144;28;25063;-69
2023/08/04 07:23:42;;;;;;;4.10;2.28;;;;;;;;;;4998975;28;25066;-70
2023/08/04 07:26:09;;;;;;;5.05;2.97;;;;;;;;;;4985032;28;25162;-71
2023/08/04 07:28:35;;;;;;;4.70;2.30;;;;;;;;;;4988813;28;25065;-70
2023/08/04 07:31:08;;;;;;;6.32;2.80;;;;;;;;;;4990694;28;25087;-71
2023/08/04 07:33:35;;;;;;;4.75;2.70;;;;;;;;;;4990218;28;25059;-70
2023/08/04 07:36:01;;;;;;;5.45;3.08;;;;;;;;;;4992220;28;25099;-71
2023/08/04 07:38:27;;;;;;;4.65;2.42;;;;;;;;;;4983005;28;25107;-71
2023/08/04 07:40:54;;;;;;;8.70;3.13;;;;;;;;;;4992581;28;25169;-70
2023/08/04 07:43:20;;;;;;;5.78;2.67;;;;;;;;;;4983240;28;25062;-71
2023/08/04 07:45:46;;;;;;;12.15;3.17;;;;;;;;;;4991006;28;25060;-70
2023/08/04 07:48:12;;;;;;;6.68;2.70;;;;;;;;;;4987291;28;25066;-71
2023/08/04 07:50:42;;;;;;;9.68;2.72;;;;;;;;;;4990038;28;25078;-71
2023/08/04 07:53:08;;;;;;;8.25;2.50;;;;;;;;;;4992102;28;25064;-72
2023/08/04 07:55:36;;;;;;;7.25;2.45;;;;;;;;;;4996432;28;25072;-73
2023/08/04 07:58:02;;;;;;;5.55;2.60;;;;;;;;;;4977237;28;25138;-72
2023/08/04 08:00:28;;;;;;;5.78;2.78;;;;;;;;;;4995504;28;25086;-71
2023/08/04 08:02:54;;;;;;;6.03;2.30;;;;;;;;;;4989707;28;25078;-71
2023/08/04 08:05:20;;;;;;;12.13;2.40;;;;;;;;;;4997207;28;25055;-71
2023/08/04 08:07:46;;;;;;;9.60;2.58;;;;;;;;;;4985981;28;25059;-71
2023/08/04 08:10:12;;;;;;;6.15;2.63;;;;;;;;;;4992287;28;25086;-71
2023/08/04 08:12:38;;;;;;;6.00;2.78;;;;;;;;;;4977429;28;25067;-71
2023/08/04 08:15:07;;;;;;;12.43;3.53;;;;;;;;;;4980795;28;25061;-71
2023/08/04 08:17:33;;;;;;;10.18;3.30;;;;;;;;;;4979819;28;25140;-70
2023/08/04 08:19:59;;;;;;;7.85;2.78;;;;;;;;;;4982510;28;25120;-71
2023/08/04 08:22:25;;;;;;;8.15;2.47;;;;;;;;;;4984631;28;25066;-70
2023/08/04 08:24:55;;;;;;;6.00;2.30;;;;;;;;;;4985355;28;25066;-73
2023/08/04 08:27:21;;;;;;;10.50;3.47;;;;;;;;;;4985149;28;25063;-71
2023/08/04 08:29:47;;;;;;;7.15;2.60;;;;;;;;;;4986572;28;25072;-72
2023/08/04 08:32:13;;;;;;;10.48;3.00;;;;;;;;;;4992414;28;25060;-71
2023/08/04 08:34:39;;;;;;;11.02;2.78;;;;;;;;;;4986246;28;25077;-72
2023/08/04 08:37:08;;;;;;;9.05;3.22;;;;;;;;;;4987835;28;25105;-72
2023/08/04 08:39:34;;;;;;;11.40;3.47;;;;;;;;;;4994194;28;25085;-71
2023/08/04 08:42:00;;;;;;;7.20;3.03;;;;;;;;;;4992969;28;25090;-71
2023/08/04 08:44:27;;;;;;;10.90;3.63;;;;;;;;;;4996849;28;25142;-70
2023/08/04 08:46:53;;;;;;;8.68;3.03;;;;;;;;;;4989952;28;25065;-72
2023/08/04 08:49:21;;;;;;;5.90;1.92;;;;;;;;;;5003073;28;25141;-71
2023/08/04 08:51:50;;;;;;;8.25;2.00;;;;;;;;;;4996447;28;25075;-71
2023/08/04 08:54:16;;;;;;;6.20;1.77;;;;;;;;;;4988288;28;25070;-71
2023/08/04 08:56:42;;;;;;;4.45;1.67;;;;;;;;;;4992237;28;25066;-72
2023/08/04 08:59:08;;;;;;;8.20;1.80;;;;;;;;;;4994161;28;25060;-71
2023/08/04 09:01:34;;;;;;;8.20;2.00;;;;;;;;;;4992122;28;25069;-72
2023/08/04 09:04:00;;;;;;;6.72;1.77;;;;;;;;;;4996018;28;25111;-71
2023/08/04 09:06:26;;;;;;;6.43;2.10;;;;;;;;;;4982689;28;25044;-71
2023/08/04 09:08:54;;;;;;;8.15;1.90;;;;;;;;;;4990742;28;25073;-71
2023/08/04 09:11:20;;;;;;;8.02;2.05;;;;;;;;;;4994359;28;25054;-71
2023/08/04 09:13:48;;;;;;;6.97;2.25;;;;;;;;;;4998609;28;25137;-71
2023/08/04 09:16:15;;;;;;;7.57;1.90;;;;;;;;;;5011995;28;25060;-71
2023/08/04 09:18:42;;;;;;;6.82;2.38;;;;;;;;;;4998606;28;25077;-72
2023/08/04 09:21:08;;;;;;;8.93;2.03;;;;;;;;;;4994325;28;25140;-72
2023/08/04 09:23:37;;;;;;;6.05;1.88;;;;;;;;;;4995938;28;25173;-72
2023/08/04 09:26:04;;;;;;;3.40;1.48;;;;;;;;;;4985467;28;25066;-72
2023/08/04 09:28:30;;;;;;;6.13;1.80;;;;;;;;;;4997974;28;25123;-72
2023/08/04 09:31:02;;;;;;;5.70;1.55;;;;;;;;;;4988135;28;25072;-72
2023/08/04 09:33:28;;;;;;;4.40;1.40;;;;;;;;;;5004776;28;25067;-70
2023/08/04 09:36:03;;;;;;;4.20;1.25;;;;;;;;;;4993105;28;25069;-72
2023/08/04 09:38:29;;;;;;;5.78;1.55;;;;;;;;;;4991417;28;25064;-70
2023/08/04 09:41:08;;;;;;;3.47;1.50;;;;;;;;;;4994620;28;25097;-71
2023/08/04 09:43:35;;;;;;;3.50;1.10;;;;;;;;;;4987545;28;25208;-72
2023/08/04 09:46:05;;;;;;;5.10;1.20;;;;;;;;;;4997377;28;25118;-71
2023/08/04 09:48:31;;;;;;;4.82;1.33;;;;;;;;;;4991875;28;25091;-72
2023/08/04 09:51:09;;;;;;;2.70;0.93;;;;;;;;;;4996176;28;25083;-71
2023/08/04 09:53:45;;;;;;;1.42;0.75;;;;;;;;;;4987247;28;25082;-72
2023/08/04 09:56:12;;;;;;;6.60;1.25;;;;;;;;;;4991558;28;25066;-71
2023/08/04 09:58:39;;;;;;;2.05;0.93;;;;;;;;;;4991945;28;25099;-71
2023/08/04 10:01:05;;;;;;;3.42;1.40;;;;;;;;;;5002900;28;25106;-73
2023/08/04 10:03:31;;;;;;;3.85;1.00;;;;;;;;;;4989790;28;25067;-72
2023/08/04 10:05:59;;;;;;;6.18;1.20;;;;;;;;;;4992703;28;25051;-72
2023/08/04 10:08:25;;;;;;;2.20;1.20;;;;;;;;;;5000763;28;25076;-72
2023/08/04 10:10:54;;;;;;;1.75;1.30;;;;;;;;;;4976082;28;25110;-71
2023/08/04 10:13:21;;;;;;;1.65;0.93;;;;;;;;;;4998083;28;25068;-73
2023/08/04 10:15:47;;;;;;;3.83;0.88;;;;;;;;;;5007083;28;25060;-72
2023/08/04 10:18:13;;;;;;;4.75;0.98;;;;;;;;;;4997325;28;25158;-70
2023/08/04 10:20:39;;;;;;;1.95;0.90;;;;;;;;;;4998193;28;25186;-71
2023/08/04 10:23:05;;;;;;;2.03;0.90;;;;;;;;;;4988857;28;25059;-70
2023/08/04 10:25:31;;;;;;;5.35;1.60;;;;;;;;;;4992811;28;25085;-71
2023/08/04 10:27:58;;;;;;;4.25;1.40;;;;;;;;;;4984242;28;25101;-71
2023/08/04 10:30:24;;;;;;;1.77;0.98;;;;;;;;;;4994187;28;25080;-71
2023/08/04 10:32:51;;;;;;;1.00;1.00;;;;;;;;;;4988738;28;25078;-71
2023/08/04 10:35:18;;;;;;;6.47;1.60;;;;;;;;;;4998149;28;25154;-71
2023/08/04 10:37:48;;;;;;;1.83;0.90;;;;;;;;;;4994408;28;25043;-71
2023/08/04 10:40:27;;;;;;;4.70;1.33;;;;;;;;;;4994689;28;25061;-72
2023/08/04 10:43:08;;;;;;;2.08;0.77;;;;;;;;;;5007372;28;25061;-71
2023/08/04 10:45:52;;;;;;;2.47;1.20;;;;;;;;;;5016899;28;25074;-70
2023/08/04 10:48:20;;;;;;;4.38;1.48;;;;;;;;;;4995612;28;25052;-71
2023/08/04 10:50:47;;;;;;;2.67;1.10;;;;;;;;;;5016803;28;25125;-71
2023/08/04 10:53:13;;;;;;;3.70;1.45;;;;;;;;;;4994230;28;25084;-73
2023/08/04 10:55:51;;;;;;;4.97;1.33;;;;;;;;;;4991772;28;25076;-71
2023/08/04 10:58:17;;;;;;;3.70;0.93;;;;;;;;;;4996649;28;25135;-71
2023/08/04 11:00:43;;;;;;;0.98;0.77;;;;;;;;;;4996340;28;25166;-73
2023/08/04 11:03:18;;;;;;;2.78;0.90;;;;;;;;;;4983469;28;25056;-71
2023/08/04 11:05:44;;;;;;;5.85;1.10;;;;;;;;;;5002697;28;25055;-73
2023/08/04 11:08:10;;;;;;;4.95;1.25;;;;;;;;;;4993380;28;25071;-70
2023/08/04 11:10:36;;;;;;;5.78;0.90;;;;;;;;;;4999861;28;25056;-73
2023/08/04 11:13:02;;;;;;;1.17;0.90;;;;;;;;;;4990078;28;25151;-73
2023/08/04 11:15:28;;;;;;;5.22;1.20;;;;;;;;;;4988527;28;25080;-70
2023/08/04 11:17:54;;;;;;;4.50;0.98;;;;;;;;;;4993750;28;25084;-70
2023/08/04 11:20:20;;;;;;;6.00;1.05;;;;;;;;;;4998313;28;25131;-70
2023/08/04 11:22:46;;;;;;;1.38;0.93;;;;;;;;;;4998145;28;25076;-72
2023/08/04 11:25:12;;;;;;;1.95;0.68;;;;;;;;;;4989985;28;25082;-72
2023/08/04 11:27:38;;;;;;;3.50;0.80;;;;;;;;;;4991382;28;25077;-72
2023/08/04 11:30:05;;;;;;;2.03;0.85;;;;;;;;;;4991699;28;25112;-72
2023/08/04 11:32:31;;;;;;;2.10;0.50;;;;;;;;;;5001603;28;25152;-71
2023/08/04 11:34:57;;;;;;;0.88;0.68;;;;;;;;;;4992118;28;25127;-73
2023/08/04 11:37:23;;;;;;;4.38;1.20;;;;;;;;;;5001658;28;25071;-73
2023/08/04 11:39:51;;;;;;;1.52;0.90;;;;;;;;;;4987838;28;25144;-73
2023/08/04 11:42:16;;;;;;;0.60;0.50;;;;;;;;;;4990006;28;25091;-76
2023/08/04 11:44:43;;;;;;;1.35;0.73;;;;;;;;;;4990991;28;25151;-76
2023/08/04 11:47:10;;;;;;;3.45;1.05;;;;;;;;;;5014138;28;25055;-74
2023/08/04 11:49:36;;;;;;;5.07;0.70;;;;;;;;;;5001780;28;25061;-73
2023/08/04 11:52:07;;;;;;;2.80;1.02;;;;;;;;;;5005676;28;25069;-75
2023/08/04 11:54:33;;;;;;;1.83;0.85;;;;;;;;;;5001804;28;25102;-76
2023/08/04 11:56:59;;;;;;;4.70;0.93;;;;;;;;;;4995165;28;25102;-73
2023/08/04 11:59:26;;;;;;;1.73;0.90;;;;;;;;;;4983273;28;25063;-73
2023/08/04 12:02:05;;;;;;;3.28;1.13;;;;;;;;;;4992573;28;25167;-72
2023/08/04 12:04:31;;;;;;;4.90;1.00;;;;;;;;;;4996439;28;25094;-73
2023/08/04 12:07:04;;;;;;;3.08;0.70;;;;;;;;;;4989547;28;25127;-71
2023/08/04 12:09:30;;;;;;;3.40;1.00;;;;;;;;;;4980062;28;25081;-75
2023/08/04 12:11:56;;;;;;;1.02;0.93;;;;;;;;;;4979934;28;25066;-73
2023/08/04 12:14:23;;;;;;;2.80;0.75;;;;;;;;;;5009100;28;25045;-71
2023/08/04 12:16:49;;;;;;;1.65;0.75;;;;;;;;;;4993555;28;25079;-73
2023/08/04 12:19:15;;;;;;;1.73;1.42;;;;;;;;;;5015406;28;25052;-74
2023/08/04 12:21:41;;;;;;;4.00;1.00;;;;;;;;;;4999466;28;25053;-72
2023/08/04 12:24:07;;;;;;;3.40;0.95;;;;;;;;;;5001342;28;25073;-73
2023/08/04 12:26:33;;;;;;;1.45;1.05;;;;;;;;;;4999183;28;25058;-74
2023/08/04 12:28:59;;;;;;;4.03;1.42;;;;;;;;;;4985597;28;25157;-71
2023/08/04 12:31:25;;;;;;;1.88;0.65;;;;;;;;;;4998447;28;25073;-71
2023/08/04 12:33:50;;;;;;;0.75;0.65;;;;;;;;;;4997044;28;25078;-74
2023/08/04 12:36:16;;;;;;;3.55;0.90;;;;;;;;;;5002961;28;25076;-74
2023/08/04 12:38:42;;;;;;;2.10;0.63;;;;;;;;;;5016618;28;25072;-73
2023/08/04 12:41:09;;;;;;;3.17;1.30;;;;;;;;;;5002420;28;25071;-71
2023/08/04 12:43:35;;;;;;;3.20;1.27;;;;;;;;;;4993290;28;25060;-72
2023/08/04 12:46:01;;;;;;;2.80;0.70;;;;;;;;;;5006264;28;25076;-72
2023/08/04 12:48:28;;;;;;;2.88;1.13;;;;;;;;;;4997497;28;25067;-74
2023/08/04 12:50:54;;;;;;;2.90;0.82;;;;;;;;;;4995347;28;25069;-71
2023/08/04 12:53:20;;;;;;;1.05;1.02;;;;;;;;;;4993075;28;25074;-73
2023/08/04 12:55:46;;;;;;;3.00;0.70;;;;;;;;;;4991596;28;25055;-73
2023/08/04 12:58:12;;;;;;;4.03;0.98;;;;;;;;;;4996795;28;25062;-74
2023/08/04 13:00:38;;;;;;;6.32;1.33;;;;;;;;;;4997172;28;25140;-71
2023/08/04 13:03:04;;;;;;;1.35;0.80;;;;;;;;;;4994851;28;25065;-71
2023/08/04 13:05:30;;;;;;;4.22;1.30;;;;;;;;;;5002385;28;25061;-73
2023/08/04 13:07:56;;;;;;;2.47;1.30;;;;;;;;;;5004919;28;25060;-72
2023/08/04 13:10:22;;;;;;;1.05;0.63;;;;;;;;;;4991333;28;25077;-71
2023/08/04 13:12:48;;;;;;;2.92;1.17;;;;;;;;;;4984021;28;25073;-73
2023/08/04 13:15:14;;;;;;;1.08;0.80;;;;;;;;;;4999083;28;25085;-72
2023/08/04 13:17:40;;;;;;;2.90;1.20;;;;;;;;;;5005921;28;25124;-71
2023/08/04 13:20:08;;;;;;;2.40;1.48;;;;;;;;;;4990021;28;25081;-75
2023/08/04 13:22:35;;;;;;;0.68;0.68;;;;;;;;;;4997952;28;25161;-72
2023/08/04 13:25:03;;;;;;;1.67;1.00;;;;;;;;;;4998494;28;25064;-72
2023/08/04 13:27:29;;;;;;;3.33;0.90;;;;;;;;;;4994805;28;25053;-73
2023/08/04 13:29:55;;;;;;;2.40;1.10;;;;;;;;;;4996048;28;25084;-73
2023/08/04 13:32:21;;;;;;;1.80;0.73;;;;;;;;;;4990086;28;25139;-70
2023/08/04 13:34:47;;;;;;;1.42;0.88;;;;;;;;;;5005162;28;25107;-72
2023/08/04 13:37:13;;;;;;;3.53;1.13;;;;;;;;;;4993294;28;25079;-72
2023/08/04 13:39:39;;;;;;;3.00;1.00;;;;;;;;;;4994425;28;25145;-72
2023/08/04 13:42:05;;;;;;;1.30;1.05;;;;;;;;;;4994897;28;25066;-72
2023/08/04 13:44:31;;;;;;;5.15;0.98;;;;;;;;;;4989809;28;25073;-72
2023/08/04 13:46:57;;;;;;;2.85;0.77;;;;;;;;;;5004619;28;25071;-72
2023/08/04 13:49:23;;;;;;;2.25;1.08;;;;;;;;;;4998324;28;25148;-73
2023/08/04 13:51:49;;;;;;;2.20;1.38;;;;;;;;;;5007855;28;25077;-72
2023/08/04 13:54:15;;;;;;;2.83;1.08;;;;;;;;;;4989435;28;25153;-71
2023/08/04 13:56:42;;;;;;;4.22;1.50;;;;;;;;;;5001086;28;25043;-72
2023/08/04 13:59:08;;;;;;;2.17;1.15;;;;;;;;;;5000826;28;25100;-74
2023/08/04 14:01:34;;;;;;;1.60;0.85;;;;;;;;;;5003490;28;25057;-71
2023/08/04 14:04:00;;;;;;;1.98;1.00;;;;;;;;;;5005783;28;25076;-70
2023/08/04 14:06:26;;;;;;;1.67;0.70;;;;;;;;;;5007704;28;25055;-71
2023/08/04 14:08:52;;;;;;;0.98;0.80;;;;;;;;;;5001401;28;25069;-73
2023/08/04 14:11:18;;;;;;;2.80;1.08;;;;;;;;;;5002878;28;25111;-71
2023/08/04 14:13:47;;;;;;;1.73;0.95;;;;;;;;;;5006417;28;25084;-70
2023/08/04 14:16:14;;;;;;;1.23;0.98;;;;;;;;;;5008416;28;25488;-72
2023/08/04 14:18:41;;;;;;;2.67;1.10;;;;;;;;;;4995934;28;25079;-71
2023/08/04 14:21:07;;;;;;;1.95;1.20;;;;;;;;;;4987295;28;25055;-71
2023/08/04 14:23:33;;;;;;;1.92;1.23;;;;;;;;;;5011215;28;25052;-72
2023/08/04 14:25:59;;;;;;;5.07;0.95;;;;;;;;;;4995192;28;25052;-71
2023/08/04 14:28:25;;;;;;;2.85;1.00;;;;;;;;;;4996158;28;25063;-73
2023/08/04 14:30:52;;;;;;;2.10;1.00;;;;;;;;;;4988152;28;25050;-77
2023/08/04 14:33:18;;;;;;;1.90;1.00;;;;;;;;;;4996437;28;25071;-73
2023/08/04 14:35:45;;;;;;;2.15;1.00;;;;;;;;;;4981394;28;25063;-71